Portada
METAR-TAF:

METAR-TAF

Aeropuertos :

Pago Pago, Islas Ultramarinas de Estados Unidos

Aeropuerto Internacional de Pago Pago

latitud: 14-20S, longitud: 170-43W, altitud: 3 m

Observación

El informe se hizo hace 25 minutos, a las 14:50 UTC
Viento calma
Temperatura 26°C
Humedad 89%
Presión 1006 hPa
Visibilidad: 16.1 km
Escasas nubes a una altura de 2300 ft
Nubes dispersas a una altura de 22000 ft

METAR: NSTU 111450Z 00000KT 10SM FEW023 SCT220 26/24 A2970 RMK SLP058 8/101 T02630242 56007

Hora: 04:15 (15:15 UTC)

Pronóstico

El informe se hizo hace 3 horas y 39 minutos, a las 11:36 UTC
Pronóstico válido del 11 a las 12 UTC al 12 a las 12 UTC
Viento 6 kt con dirección variable
Visibilidad: 10 km
Nubes dispersas a una altura de 2000 ft
Cielo nuboso a una altura de 4000 ft
Cielo nuboso a una altura de 10000 ft
chaparrones en las proximidades

TAF: NSTU 111136Z 1112/1212 VRB06KT P6SM VCSH SCT020 BKN040 BKN100

Observaciones y pronósticos meteorológicos de más de 4000 aeropuertos (mensajes METAR y TAF).

Los puntos amarillos y rojos representan las estaciones disponibles.

Ponga el ratón en el punto deseado para ver el nombre de la estación.

Haga clic para ver las observaciones y los pronósticos meteorológicos.

Para cambiar el mapa : haga clic en los botones verdes con una cruz de color negro para hacer un zoom, en el botón verde con un guión para alejar o en las flechas verdes para mapas adyacentes.


METAR-TAF: